sensor_id;sensor_type;location;lat;lon;timestamp;P1;durP1;ratioP1;P2;durP2;ratioP2
16029;SDS011;34770;49.272;11.070;2023-11-22T00:00:43;4.83;;;4.33;;
16029;SDS011;34770;49.272;11.070;2023-11-22T00:03:08;5.00;;;4.50;;
16029;SDS011;34770;49.272;11.070;2023-11-22T00:05:34;5.00;;;4.50;;
16029;SDS011;34770;49.272;11.070;2023-11-22T00:07:59;4.60;;;4.13;;
16029;SDS011;34770;49.272;11.070;2023-11-22T00:10:25;5.47;;;4.37;;
16029;SDS011;34770;49.272;11.070;2023-11-22T00:12:50;4.83;;;4.13;;
16029;SDS011;34770;49.272;11.070;2023-11-22T00:15:15;4.97;;;4.57;;
16029;SDS011;34770;49.272;11.070;2023-11-22T00:17:46;5.33;;;4.83;;
16029;SDS011;34770;49.272;11.070;2023-11-22T00:20:12;6.27;;;4.70;;
16029;SDS011;34770;49.272;11.070;2023-11-22T00:22:38;5.23;;;4.47;;
16029;SDS011;34770;49.272;11.070;2023-11-22T00:25:03;4.87;;;4.10;;
16029;SDS011;34770;49.272;11.070;2023-11-22T00:27:29;4.50;;;4.07;;
16029;SDS011;34770;49.272;11.070;2023-11-22T00:29:56;5.70;;;4.80;;
16029;SDS011;34770;49.272;11.070;2023-11-22T00:32:22;5.63;;;4.57;;
16029;SDS011;34770;49.272;11.070;2023-11-22T00:34:47;6.00;;;4.57;;
16029;SDS011;34770;49.272;11.070;2023-11-22T00:37:13;6.53;;;5.27;;
16029;SDS011;34770;49.272;11.070;2023-11-22T00:39:38;6.30;;;4.93;;
16029;SDS011;34770;49.272;11.070;2023-11-22T00:42:04;5.97;;;5.37;;
16029;SDS011;34770;49.272;11.070;2023-11-22T00:44:30;7.50;;;5.13;;
16029;SDS011;34770;49.272;11.070;2023-11-22T00:46:56;6.57;;;5.17;;
16029;SDS011;34770;49.272;11.070;2023-11-22T00:49:22;6.70;;;6.00;;
16029;SDS011;34770;49.272;11.070;2023-11-22T00:51:48;7.23;;;5.40;;
16029;SDS011;34770;49.272;11.070;2023-11-22T00:54:13;7.17;;;5.00;;
16029;SDS011;34770;49.272;11.070;2023-11-22T00:56:40;6.60;;;5.43;;
16029;SDS011;34770;49.272;11.070;2023-11-22T00:59:05;5.13;;;4.57;;
16029;SDS011;34770;49.272;11.070;2023-11-22T01:01:31;6.07;;;5.10;;
16029;SDS011;34770;49.272;11.070;2023-11-22T01:03:56;4.83;;;4.33;;
16029;SDS011;34770;49.272;11.070;2023-11-22T01:06:22;5.50;;;4.87;;
16029;SDS011;34770;49.272;11.070;2023-11-22T01:08:48;5.87;;;4.57;;
16029;SDS011;34770;49.272;11.070;2023-11-22T01:11:13;5.90;;;4.37;;
16029;SDS011;34770;49.272;11.070;2023-11-22T01:13:39;5.57;;;4.57;;
16029;SDS011;34770;49.272;11.070;2023-11-22T01:16:08;4.90;;;4.40;;
16029;SDS011;34770;49.272;11.070;2023-11-22T01:18:34;4.50;;;4.10;;
16029;SDS011;34770;49.272;11.070;2023-11-22T01:21:00;4.73;;;4.33;;
16029;SDS011;34770;49.272;11.070;2023-11-22T01:23:25;4.87;;;4.37;;
16029;SDS011;34770;49.272;11.070;2023-11-22T01:25:52;6.03;;;5.20;;
16029;SDS011;34770;49.272;11.070;2023-11-22T01:28:18;5.70;;;4.40;;
16029;SDS011;34770;49.272;11.070;2023-11-22T01:30:44;4.73;;;4.23;;
16029;SDS011;34770;49.272;11.070;2023-11-22T01:33:12;5.10;;;4.60;;
16029;SDS011;34770;49.272;11.070;2023-11-22T01:35:37;5.27;;;4.60;;
16029;SDS011;34770;49.272;11.070;2023-11-22T01:38:03;4.53;;;3.93;;
16029;SDS011;34770;49.272;11.070;2023-11-22T01:40:30;5.10;;;4.57;;
16029;SDS011;34770;49.272;11.070;2023-11-22T01:42:56;5.00;;;4.13;;
16029;SDS011;34770;49.272;11.070;2023-11-22T01:45:22;4.70;;;3.90;;
16029;SDS011;34770;49.272;11.070;2023-11-22T01:47:47;4.77;;;4.37;;
16029;SDS011;34770;49.272;11.070;2023-11-22T01:50:13;6.73;;;4.73;;
16029;SDS011;34770;49.272;11.070;2023-11-22T01:52:39;4.93;;;4.37;;
16029;SDS011;34770;49.272;11.070;2023-11-22T01:55:06;5.60;;;4.80;;
16029;SDS011;34770;49.272;11.070;2023-11-22T01:57:34;5.03;;;4.53;;
16029;SDS011;34770;49.272;11.070;2023-11-22T02:00:00;5.27;;;4.60;;
16029;SDS011;34770;49.272;11.070;2023-11-22T02:02:29;4.90;;;4.40;;
16029;SDS011;34770;49.272;11.070;2023-11-22T02:04:55;4.77;;;4.27;;
16029;SDS011;34770;49.272;11.070;2023-11-22T02:07:21;5.17;;;4.67;;
16029;SDS011;34770;49.272;11.070;2023-11-22T02:09:46;5.30;;;4.80;;
16029;SDS011;34770;49.272;11.070;2023-11-22T02:12:12;5.30;;;4.73;;
16029;SDS011;34770;49.272;11.070;2023-11-22T02:14:37;5.97;;;4.50;;
16029;SDS011;34770;49.272;11.070;2023-11-22T02:17:03;5.37;;;4.87;;
16029;SDS011;34770;49.272;11.070;2023-11-22T02:19:28;4.57;;;4.00;;
16029;SDS011;34770;49.272;11.070;2023-11-22T02:21:56;4.93;;;4.40;;
16029;SDS011;34770;49.272;11.070;2023-11-22T02:24:21;4.20;;;3.87;;
16029;SDS011;34770;49.272;11.070;2023-11-22T02:26:47;5.50;;;4.73;;
16029;SDS011;34770;49.272;11.070;2023-11-22T02:29:12;5.00;;;4.50;;
16029;SDS011;34770;49.272;11.070;2023-11-22T02:31:39;5.60;;;5.00;;
16029;SDS011;34770;49.272;11.070;2023-11-22T02:34:06;5.07;;;4.43;;
16029;SDS011;34770;49.272;11.070;2023-11-22T02:36:31;5.37;;;4.90;;
16029;SDS011;34770;49.272;11.070;2023-11-22T02:38:57;6.40;;;4.37;;
16029;SDS011;34770;49.272;11.070;2023-11-22T02:41:23;5.60;;;5.10;;
16029;SDS011;34770;49.272;11.070;2023-11-22T02:43:50;5.20;;;4.57;;
16029;SDS011;34770;49.272;11.070;2023-11-22T02:46:15;4.93;;;4.43;;
16029;SDS011;34770;49.272;11.070;2023-11-22T02:48:41;5.40;;;4.90;;
16029;SDS011;34770;49.272;11.070;2023-11-22T02:51:06;5.07;;;4.47;;
16029;SDS011;34770;49.272;11.070;2023-11-22T02:53:32;5.20;;;4.70;;
16029;SDS011;34770;49.272;11.070;2023-11-22T02:56:00;6.20;;;5.00;;
16029;SDS011;34770;49.272;11.070;2023-11-22T02:58:29;5.77;;;4.97;;
16029;SDS011;34770;49.272;11.070;2023-11-22T03:00:55;6.10;;;4.60;;
16029;SDS011;34770;49.272;11.070;2023-11-22T03:03:22;5.00;;;4.50;;
16029;SDS011;34770;49.272;11.070;2023-11-22T03:05:48;6.67;;;5.17;;
16029;SDS011;34770;49.272;11.070;2023-11-22T03:08:15;5.27;;;4.70;;
16029;SDS011;34770;49.272;11.070;2023-11-22T03:10:41;5.30;;;4.80;;
16029;SDS011;34770;49.272;11.070;2023-11-22T03:13:07;5.60;;;4.87;;
16029;SDS011;34770;49.272;11.070;2023-11-22T03:15:33;5.13;;;4.23;;
16029;SDS011;34770;49.272;11.070;2023-11-22T03:17:59;7.97;;;4.80;;
16029;SDS011;34770;49.272;11.070;2023-11-22T03:20:25;5.70;;;4.63;;
16029;SDS011;34770;49.272;11.070;2023-11-22T03:22:50;5.23;;;4.73;;
16029;SDS011;34770;49.272;11.070;2023-11-22T03:25:15;5.23;;;4.43;;
16029;SDS011;34770;49.272;11.070;2023-11-22T03:27:41;4.87;;;4.43;;
16029;SDS011;34770;49.272;11.070;2023-11-22T03:30:07;6.40;;;5.07;;
16029;SDS011;34770;49.272;11.070;2023-11-22T03:32:37;6.17;;;5.53;;
16029;SDS011;34770;49.272;11.070;2023-11-22T03:35:04;6.80;;;4.30;;
16029;SDS011;34770;49.272;11.070;2023-11-22T03:37:33;5.60;;;4.43;;
16029;SDS011;34770;49.272;11.070;2023-11-22T03:39:59;5.47;;;4.90;;
16029;SDS011;34770;49.272;11.070;2023-11-22T03:42:24;5.00;;;4.50;;
16029;SDS011;34770;49.272;11.070;2023-11-22T03:44:51;5.90;;;4.47;;
16029;SDS011;34770;49.272;11.070;2023-11-22T03:47:17;6.17;;;4.93;;
16029;SDS011;34770;49.272;11.070;2023-11-22T03:49:42;4.93;;;4.53;;
16029;SDS011;34770;49.272;11.070;2023-11-22T03:52:10;5.90;;;5.07;;
16029;SDS011;34770;49.272;11.070;2023-11-22T03:54:36;4.13;;;3.73;;
16029;SDS011;34770;49.272;11.070;2023-11-22T03:57:02;6.80;;;4.93;;
16029;SDS011;34770;49.272;11.070;2023-11-22T03:59:27;8.33;;;4.67;;
16029;SDS011;34770;49.272;11.070;2023-11-22T04:01:53;5.50;;;4.23;;
16029;SDS011;34770;49.272;11.070;2023-11-22T04:04:19;5.30;;;4.80;;
16029;SDS011;34770;49.272;11.070;2023-11-22T04:06:44;5.57;;;4.87;;
16029;SDS011;34770;49.272;11.070;2023-11-22T04:09:10;6.40;;;4.57;;
16029;SDS011;34770;49.272;11.070;2023-11-22T04:11:37;5.10;;;4.17;;
16029;SDS011;34770;49.272;11.070;2023-11-22T04:14:03;5.20;;;4.70;;
16029;SDS011;34770;49.272;11.070;2023-11-22T04:16:28;4.83;;;4.07;;
16029;SDS011;34770;49.272;11.070;2023-11-22T04:18:53;4.53;;;4.13;;
16029;SDS011;34770;49.272;11.070;2023-11-22T04:21:19;6.00;;;4.73;;
16029;SDS011;34770;49.272;11.070;2023-11-22T04:23:44;6.30;;;4.27;;
16029;SDS011;34770;49.272;11.070;2023-11-22T04:26:10;5.83;;;4.97;;
16029;SDS011;34770;49.272;11.070;2023-11-22T04:28:35;4.60;;;4.00;;
16029;SDS011;34770;49.272;11.070;2023-11-22T04:31:01;5.80;;;4.70;;
16029;SDS011;34770;49.272;11.070;2023-11-22T04:33:26;4.63;;;4.10;;
16029;SDS011;34770;49.272;11.070;2023-11-22T04:35:54;5.67;;;4.77;;
16029;SDS011;34770;49.272;11.070;2023-11-22T04:38:20;5.27;;;4.77;;
16029;SDS011;34770;49.272;11.070;2023-11-22T04:40:45;4.57;;;4.10;;
16029;SDS011;34770;49.272;11.070;2023-11-22T04:43:10;5.50;;;4.40;;
16029;SDS011;34770;49.272;11.070;2023-11-22T04:45:36;5.37;;;4.87;;
16029;SDS011;34770;49.272;11.070;2023-11-22T04:48:02;4.33;;;3.83;;
16029;SDS011;34770;49.272;11.070;2023-11-22T04:50:27;4.67;;;4.27;;
16029;SDS011;34770;49.272;11.070;2023-11-22T04:52:52;5.10;;;4.07;;
16029;SDS011;34770;49.272;11.070;2023-11-22T04:55:18;4.30;;;3.90;;
16029;SDS011;34770;49.272;11.070;2023-11-22T04:57:48;4.47;;;4.07;;
16029;SDS011;34770;49.272;11.070;2023-11-22T05:00:14;4.80;;;4.40;;
16029;SDS011;34770;49.272;11.070;2023-11-22T05:02:39;4.10;;;3.70;;
16029;SDS011;34770;49.272;11.070;2023-11-22T05:05:05;3.83;;;3.53;;
16029;SDS011;34770;49.272;11.070;2023-11-22T05:07:31;5.87;;;4.03;;
16029;SDS011;34770;49.272;11.070;2023-11-22T05:09:57;4.30;;;3.73;;
16029;SDS011;34770;49.272;11.070;2023-11-22T05:12:22;4.13;;;3.73;;
16029;SDS011;34770;49.272;11.070;2023-11-22T05:14:47;4.83;;;4.43;;
16029;SDS011;34770;49.272;11.070;2023-11-22T05:17:13;4.53;;;3.97;;
16029;SDS011;34770;49.272;11.070;2023-11-22T05:19:38;5.03;;;4.53;;
16029;SDS011;34770;49.272;11.070;2023-11-22T05:22:04;6.47;;;4.37;;
16029;SDS011;34770;49.272;11.070;2023-11-22T05:24:30;4.00;;;3.70;;
16029;SDS011;34770;49.272;11.070;2023-11-22T05:26:55;4.20;;;3.60;;
16029;SDS011;34770;49.272;11.070;2023-11-22T05:29:20;5.20;;;4.43;;
16029;SDS011;34770;49.272;11.070;2023-11-22T05:31:46;5.23;;;4.73;;
16029;SDS011;34770;49.272;11.070;2023-11-22T05:34:12;4.03;;;3.63;;
16029;SDS011;34770;49.272;11.070;2023-11-22T05:36:38;4.47;;;4.07;;
16029;SDS011;34770;49.272;11.070;2023-11-22T05:39:03;8.70;;;4.60;;
16029;SDS011;34770;49.272;11.070;2023-11-22T05:41:28;4.80;;;4.40;;
16029;SDS011;34770;49.272;11.070;2023-11-22T05:43:54;6.30;;;4.93;;
16029;SDS011;34770;49.272;11.070;2023-11-22T05:46:20;7.17;;;4.87;;
16029;SDS011;34770;49.272;11.070;2023-11-22T05:48:52;4.53;;;4.13;;
16029;SDS011;34770;49.272;11.070;2023-11-22T05:51:18;5.83;;;4.53;;
16029;SDS011;34770;49.272;11.070;2023-11-22T05:53:44;6.60;;;4.93;;
16029;SDS011;34770;49.272;11.070;2023-11-22T05:56:10;7.17;;;4.70;;
16029;SDS011;34770;49.272;11.070;2023-11-22T05:58:36;6.13;;;5.53;;
16029;SDS011;34770;49.272;11.070;2023-11-22T06:01:04;5.40;;;4.13;;
16029;SDS011;34770;49.272;11.070;2023-11-22T06:03:31;6.07;;;5.17;;
16029;SDS011;34770;49.272;11.070;2023-11-22T06:05:56;6.27;;;5.17;;
16029;SDS011;34770;49.272;11.070;2023-11-22T06:08:22;5.20;;;4.70;;
16029;SDS011;34770;49.272;11.070;2023-11-22T06:10:48;6.17;;;5.27;;
16029;SDS011;34770;49.272;11.070;2023-11-22T06:13:13;5.50;;;4.83;;
16029;SDS011;34770;49.272;11.070;2023-11-22T06:15:39;5.17;;;4.67;;
16029;SDS011;34770;49.272;11.070;2023-11-22T06:18:05;6.17;;;4.73;;
16029;SDS011;34770;49.272;11.070;2023-11-22T06:20:30;6.73;;;5.30;;
16029;SDS011;34770;49.272;11.070;2023-11-22T06:22:55;7.93;;;5.10;;
16029;SDS011;34770;49.272;11.070;2023-11-22T06:25:21;6.33;;;5.50;;
16029;SDS011;34770;49.272;11.070;2023-11-22T06:27:47;7.27;;;5.77;;
16029;SDS011;34770;49.272;11.070;2023-11-22T06:30:12;7.40;;;5.40;;
16029;SDS011;34770;49.272;11.070;2023-11-22T06:32:39;7.27;;;5.47;;
16029;SDS011;34770;49.272;11.070;2023-11-22T06:35:06;9.47;;;5.20;;
16029;SDS011;34770;49.272;11.070;2023-11-22T06:37:34;6.83;;;5.13;;
16029;SDS011;34770;49.272;11.070;2023-11-22T06:39:59;7.67;;;5.83;;
16029;SDS011;34770;49.272;11.070;2023-11-22T06:42:25;8.23;;;6.50;;
16029;SDS011;34770;49.272;11.070;2023-11-22T06:44:51;8.67;;;6.57;;
16029;SDS011;34770;49.272;11.070;2023-11-22T06:47:18;9.00;;;6.47;;
16029;SDS011;34770;49.272;11.070;2023-11-22T06:49:43;6.40;;;5.43;;
16029;SDS011;34770;49.272;11.070;2023-11-22T06:52:09;6.73;;;6.00;;
16029;SDS011;34770;49.272;11.070;2023-11-22T06:54:34;8.30;;;6.20;;
16029;SDS011;34770;49.272;11.070;2023-11-22T06:57:01;8.60;;;6.03;;
16029;SDS011;34770;49.272;11.070;2023-11-22T06:59:29;9.37;;;6.40;;
16029;SDS011;34770;49.272;11.070;2023-11-22T07:01:55;7.93;;;6.23;;
16029;SDS011;34770;49.272;11.070;2023-11-22T07:04:23;9.43;;;6.47;;
16029;SDS011;34770;49.272;11.070;2023-11-22T07:06:49;8.87;;;7.00;;
16029;SDS011;34770;49.272;11.070;2023-11-22T07:09:14;6.03;;;5.43;;
16029;SDS011;34770;49.272;11.070;2023-11-22T07:11:40;7.30;;;5.93;;
16029;SDS011;34770;49.272;11.070;2023-11-22T07:14:05;8.07;;;6.43;;
16029;SDS011;34770;49.272;11.070;2023-11-22T07:16:31;10.27;;;7.37;;
16029;SDS011;34770;49.272;11.070;2023-11-22T07:18:58;7.60;;;6.63;;
16029;SDS011;34770;49.272;11.070;2023-11-22T07:21:25;8.93;;;5.90;;
16029;SDS011;34770;49.272;11.070;2023-11-22T07:23:50;8.13;;;6.07;;
16029;SDS011;34770;49.272;11.070;2023-11-22T07:26:16;6.87;;;6.17;;
16029;SDS011;34770;49.272;11.070;2023-11-22T07:28:41;6.40;;;5.43;;
16029;SDS011;34770;49.272;11.070;2023-11-22T07:31:09;7.87;;;5.97;;
16029;SDS011;34770;49.272;11.070;2023-11-22T07:33:36;8.37;;;7.07;;
16029;SDS011;34770;49.272;11.070;2023-11-22T07:36:01;8.50;;;7.20;;
16029;SDS011;34770;49.272;11.070;2023-11-22T07:38:28;8.63;;;6.73;;
16029;SDS011;34770;49.272;11.070;2023-11-22T07:40:56;8.00;;;6.40;;
16029;SDS011;34770;49.272;11.070;2023-11-22T07:43:21;7.20;;;6.33;;
16029;SDS011;34770;49.272;11.070;2023-11-22T07:45:46;7.80;;;6.63;;
16029;SDS011;34770;49.272;11.070;2023-11-22T07:48:13;8.47;;;6.40;;
16029;SDS011;34770;49.272;11.070;2023-11-22T07:50:39;5.97;;;5.37;;
16029;SDS011;34770;49.272;11.070;2023-11-22T07:53:04;8.87;;;6.93;;
16029;SDS011;34770;49.272;11.070;2023-11-22T07:55:30;7.13;;;5.87;;
16029;SDS011;34770;49.272;11.070;2023-11-22T07:57:56;5.93;;;5.07;;
16029;SDS011;34770;49.272;11.070;2023-11-22T08:00:22;7.27;;;5.63;;
16029;SDS011;34770;49.272;11.070;2023-11-22T08:02:47;6.23;;;5.50;;
16029;SDS011;34770;49.272;11.070;2023-11-22T08:05:13;6.53;;;5.90;;
16029;SDS011;34770;49.272;11.070;2023-11-22T08:07:40;5.90;;;4.83;;
16029;SDS011;34770;49.272;11.070;2023-11-22T08:10:08;6.60;;;5.43;;
16029;SDS011;34770;49.272;11.070;2023-11-22T08:12:35;6.63;;;5.50;;
16029;SDS011;34770;49.272;11.070;2023-11-22T08:15:02;7.77;;;5.57;;
16029;SDS011;34770;49.272;11.070;2023-11-22T08:17:28;6.13;;;5.23;;
16029;SDS011;34770;49.272;11.070;2023-11-22T08:19:54;6.20;;;5.10;;
16029;SDS011;34770;49.272;11.070;2023-11-22T08:22:20;4.97;;;4.47;;
16029;SDS011;34770;49.272;11.070;2023-11-22T08:24:46;6.70;;;5.27;;
16029;SDS011;34770;49.272;11.070;2023-11-22T08:27:12;6.80;;;5.40;;
16029;SDS011;34770;49.272;11.070;2023-11-22T08:29:40;6.40;;;5.73;;
16029;SDS011;34770;49.272;11.070;2023-11-22T08:32:05;5.63;;;5.00;;
16029;SDS011;34770;49.272;11.070;2023-11-22T08:34:31;9.37;;;5.57;;
16029;SDS011;34770;49.272;11.070;2023-11-22T08:36:57;6.07;;;5.47;;
16029;SDS011;34770;49.272;11.070;2023-11-22T08:39:24;7.20;;;5.63;;
16029;SDS011;34770;49.272;11.070;2023-11-22T08:41:49;7.13;;;5.67;;
16029;SDS011;34770;49.272;11.070;2023-11-22T08:44:15;6.40;;;5.37;;
16029;SDS011;34770;49.272;11.070;2023-11-22T08:46:41;6.63;;;5.83;;
16029;SDS011;34770;49.272;11.070;2023-11-22T08:49:06;7.57;;;5.40;;
16029;SDS011;34770;49.272;11.070;2023-11-22T08:51:31;9.53;;;6.83;;
16029;SDS011;34770;49.272;11.070;2023-11-22T08:53:58;9.83;;;7.20;;
16029;SDS011;34770;49.272;11.070;2023-11-22T08:56:25;9.10;;;7.20;;
16029;SDS011;34770;49.272;11.070;2023-11-22T08:58:50;8.97;;;7.03;;
16029;SDS011;34770;49.272;11.070;2023-11-22T09:01:15;8.73;;;6.43;;
16029;SDS011;34770;49.272;11.070;2023-11-22T09:03:41;8.93;;;7.50;;
16029;SDS011;34770;49.272;11.070;2023-11-22T09:06:06;10.43;;;7.47;;
16029;SDS011;34770;49.272;11.070;2023-11-22T09:08:32;9.53;;;7.20;;
16029;SDS011;34770;49.272;11.070;2023-11-22T09:10:57;9.00;;;7.67;;
16029;SDS011;34770;49.272;11.070;2023-11-22T09:13:23;10.23;;;7.87;;
16029;SDS011;34770;49.272;11.070;2023-11-22T09:15:49;8.43;;;7.07;;
16029;SDS011;34770;49.272;11.070;2023-11-22T09:18:15;8.70;;;6.30;;
16029;SDS011;34770;49.272;11.070;2023-11-22T09:20:44;8.73;;;6.83;;
16029;SDS011;34770;49.272;11.070;2023-11-22T09:23:09;9.57;;;7.10;;
16029;SDS011;34770;49.272;11.070;2023-11-22T09:25:34;9.07;;;6.47;;
16029;SDS011;34770;49.272;11.070;2023-11-22T09:28:01;7.67;;;6.30;;
16029;SDS011;34770;49.272;11.070;2023-11-22T09:30:27;7.80;;;6.97;;
16029;SDS011;34770;49.272;11.070;2023-11-22T09:35:29;8.80;;;7.20;;
16029;SDS011;34770;49.272;11.070;2023-11-22T09:37:56;11.03;;;8.30;;
16029;SDS011;34770;49.272;11.070;2023-11-22T09:40:22;11.57;;;7.30;;
16029;SDS011;34770;49.272;11.070;2023-11-22T09:42:48;9.60;;;7.30;;
16029;SDS011;34770;49.272;11.070;2023-11-22T09:45:17;9.83;;;7.47;;
16029;SDS011;34770;49.272;11.070;2023-11-22T09:47:46;8.70;;;7.00;;
16029;SDS011;34770;49.272;11.070;2023-11-22T09:50:17;11.03;;;7.87;;
16029;SDS011;34770;49.272;11.070;2023-11-22T09:52:45;10.90;;;8.57;;
16029;SDS011;34770;49.272;11.070;2023-11-22T09:55:15;9.90;;;7.77;;
16029;SDS011;34770;49.272;11.070;2023-11-22T09:57:40;10.63;;;8.33;;
16029;SDS011;34770;49.272;11.070;2023-11-22T10:00:07;10.93;;;7.83;;
16029;SDS011;34770;49.272;11.070;2023-11-22T10:02:38;12.27;;;9.23;;
16029;SDS011;34770;49.272;11.070;2023-11-22T10:05:05;11.73;;;8.80;;
16029;SDS011;34770;49.272;11.070;2023-11-22T10:07:33;12.73;;;9.27;;
16029;SDS011;34770;49.272;11.070;2023-11-22T10:10:00;11.87;;;9.20;;
16029;SDS011;34770;49.272;11.070;2023-11-22T10:12:30;13.23;;;9.60;;
16029;SDS011;34770;49.272;11.070;2023-11-22T10:14:56;10.93;;;9.03;;
16029;SDS011;34770;49.272;11.070;2023-11-22T10:17:36;14.23;;;9.70;;
16029;SDS011;34770;49.272;11.070;2023-11-22T10:20:01;11.67;;;9.93;;
16029;SDS011;34770;49.272;11.070;2023-11-22T10:22:27;11.00;;;8.23;;
16029;SDS011;34770;49.272;11.070;2023-11-22T10:24:52;10.70;;;8.47;;
16029;SDS011;34770;49.272;11.070;2023-11-22T10:27:20;13.00;;;9.27;;
16029;SDS011;34770;49.272;11.070;2023-11-22T10:29:45;13.80;;;8.67;;
16029;SDS011;34770;49.272;11.070;2023-11-22T10:32:13;13.03;;;9.40;;
16029;SDS011;34770;49.272;11.070;2023-11-22T10:34:38;11.50;;;8.63;;
16029;SDS011;34770;49.272;11.070;2023-11-22T10:37:04;10.93;;;7.97;;
16029;SDS011;34770;49.272;11.070;2023-11-22T10:39:29;12.03;;;8.43;;
16029;SDS011;34770;49.272;11.070;2023-11-22T10:41:55;10.63;;;7.67;;
16029;SDS011;34770;49.272;11.070;2023-11-22T10:44:22;14.27;;;9.23;;
16029;SDS011;34770;49.272;11.070;2023-11-22T10:46:47;10.67;;;8.57;;
16029;SDS011;34770;49.272;11.070;2023-11-22T10:49:13;10.87;;;7.67;;
16029;SDS011;34770;49.272;11.070;2023-11-22T10:51:39;12.23;;;8.47;;
16029;SDS011;34770;49.272;11.070;2023-11-22T10:54:06;14.50;;;8.60;;
16029;SDS011;34770;49.272;11.070;2023-11-22T10:56:39;13.17;;;8.23;;
16029;SDS011;34770;49.272;11.070;2023-11-22T10:59:15;12.43;;;8.53;;
16029;SDS011;34770;49.272;11.070;2023-11-22T11:01:45;11.43;;;8.00;;
16029;SDS011;34770;49.272;11.070;2023-11-22T11:04:23;13.47;;;9.50;;
16029;SDS011;34770;49.272;11.070;2023-11-22T11:06:54;15.27;;;9.93;;
16029;SDS011;34770;49.272;11.070;2023-11-22T11:09:22;12.43;;;8.57;;
16029;SDS011;34770;49.272;11.070;2023-11-22T11:11:57;14.83;;;9.47;;
16029;SDS011;34770;49.272;11.070;2023-11-22T11:14:22;12.97;;;8.97;;
16029;SDS011;34770;49.272;11.070;2023-11-22T11:16:48;13.30;;;8.63;;
16029;SDS011;34770;49.272;11.070;2023-11-22T11:19:19;10.93;;;8.13;;
16029;SDS011;34770;49.272;11.070;2023-11-22T11:21:50;12.60;;;8.87;;
16029;SDS011;34770;49.272;11.070;2023-11-22T11:24:16;11.00;;;8.33;;
16029;SDS011;34770;49.272;11.070;2023-11-22T11:26:47;12.83;;;8.57;;
16029;SDS011;34770;49.272;11.070;2023-11-22T11:29:33;12.93;;;9.23;;
16029;SDS011;34770;49.272;11.070;2023-11-22T11:32:03;11.70;;;9.33;;
16029;SDS011;34770;49.272;11.070;2023-11-22T11:34:29;9.83;;;7.97;;
16029;SDS011;34770;49.272;11.070;2023-11-22T11:36:56;11.00;;;7.13;;
16029;SDS011;34770;49.272;11.070;2023-11-22T11:39:26;12.10;;;8.97;;
16029;SDS011;34770;49.272;11.070;2023-11-22T11:42:11;11.43;;;8.60;;
16029;SDS011;34770;49.272;11.070;2023-11-22T11:44:50;14.37;;;9.97;;
16029;SDS011;34770;49.272;11.070;2023-11-22T11:47:17;15.87;;;9.43;;
16029;SDS011;34770;49.272;11.070;2023-11-22T11:49:42;9.47;;;8.00;;
16029;SDS011;34770;49.272;11.070;2023-11-22T11:52:07;10.83;;;8.97;;
16029;SDS011;34770;49.272;11.070;2023-11-22T11:54:33;14.20;;;8.93;;
16029;SDS011;34770;49.272;11.070;2023-11-22T11:56:59;12.50;;;9.03;;
16029;SDS011;34770;49.272;11.070;2023-11-22T11:59:26;12.03;;;8.20;;
16029;SDS011;34770;49.272;11.070;2023-11-22T12:01:54;12.03;;;8.17;;
16029;SDS011;34770;49.272;11.070;2023-11-22T12:04:24;12.80;;;8.77;;
16029;SDS011;34770;49.272;11.070;2023-11-22T12:06:49;18.07;;;13.83;;
16029;SDS011;34770;49.272;11.070;2023-11-22T12:09:24;14.07;;;10.33;;
16029;SDS011;34770;49.272;11.070;2023-11-22T12:11:51;12.30;;;9.50;;
16029;SDS011;34770;49.272;11.070;2023-11-22T12:14:18;11.80;;;9.07;;
16029;SDS011;34770;49.272;11.070;2023-11-22T12:16:45;13.47;;;9.93;;
16029;SDS011;34770;49.272;11.070;2023-11-22T12:19:26;12.30;;;9.77;;
16029;SDS011;34770;49.272;11.070;2023-11-22T12:21:52;12.07;;;9.33;;
16029;SDS011;34770;49.272;11.070;2023-11-22T12:24:18;12.37;;;9.33;;
16029;SDS011;34770;49.272;11.070;2023-11-22T12:26:44;12.60;;;9.87;;
16029;SDS011;34770;49.272;11.070;2023-11-22T12:29:14;24.70;;;16.50;;
16029;SDS011;34770;49.272;11.070;2023-11-22T12:31:49;14.13;;;9.70;;
16029;SDS011;34770;49.272;11.070;2023-11-22T12:34:17;10.00;;;7.57;;
16029;SDS011;34770;49.272;11.070;2023-11-22T12:36:43;11.97;;;8.40;;
16029;SDS011;34770;49.272;11.070;2023-11-22T12:39:10;11.70;;;8.77;;
16029;SDS011;34770;49.272;11.070;2023-11-22T12:41:42;11.43;;;8.80;;
16029;SDS011;34770;49.272;11.070;2023-11-22T12:44:08;8.93;;;7.53;;
16029;SDS011;34770;49.272;11.070;2023-11-22T12:46:49;11.57;;;8.63;;
16029;SDS011;34770;49.272;11.070;2023-11-22T12:49:20;11.37;;;9.00;;
16029;SDS011;34770;49.272;11.070;2023-11-22T12:51:49;12.50;;;9.40;;
16029;SDS011;34770;49.272;11.070;2023-11-22T12:54:16;14.50;;;10.80;;
16029;SDS011;34770;49.272;11.070;2023-11-22T12:56:45;16.77;;;12.97;;
16029;SDS011;34770;49.272;11.070;2023-11-22T12:59:10;14.63;;;11.40;;
16029;SDS011;34770;49.272;11.070;2023-11-22T13:01:35;12.83;;;10.97;;
16029;SDS011;34770;49.272;11.070;2023-11-22T13:04:01;11.37;;;9.20;;
16029;SDS011;34770;49.272;11.070;2023-11-22T13:06:26;15.63;;;11.97;;
16029;SDS011;34770;49.272;11.070;2023-11-22T13:08:52;14.93;;;10.93;;
16029;SDS011;34770;49.272;11.070;2023-11-22T13:11:20;12.30;;;10.40;;
16029;SDS011;34770;49.272;11.070;2023-11-22T13:13:46;15.93;;;9.00;;
16029;SDS011;34770;49.272;11.070;2023-11-22T13:16:12;15.87;;;12.17;;
16029;SDS011;34770;49.272;11.070;2023-11-22T13:18:39;12.80;;;10.03;;
16029;SDS011;34770;49.272;11.070;2023-11-22T13:21:04;12.27;;;8.90;;
16029;SDS011;34770;49.272;11.070;2023-11-22T13:23:30;10.03;;;8.47;;
16029;SDS011;34770;49.272;11.070;2023-11-22T13:25:55;11.17;;;8.10;;
16029;SDS011;34770;49.272;11.070;2023-11-22T13:28:21;11.63;;;8.27;;
16029;SDS011;34770;49.272;11.070;2023-11-22T13:30:47;10.60;;;8.30;;
16029;SDS011;34770;49.272;11.070;2023-11-22T13:33:14;12.77;;;8.13;;
16029;SDS011;34770;49.272;11.070;2023-11-22T13:35:39;13.17;;;9.17;;
16029;SDS011;34770;49.272;11.070;2023-11-22T13:38:05;13.10;;;9.23;;
16029;SDS011;34770;49.272;11.070;2023-11-22T13:40:35;14.13;;;10.10;;
16029;SDS011;34770;49.272;11.070;2023-11-22T13:43:04;11.87;;;8.90;;
16029;SDS011;34770;49.272;11.070;2023-11-22T13:45:30;15.20;;;11.57;;
16029;SDS011;34770;49.272;11.070;2023-11-22T13:47:55;15.87;;;9.90;;
16029;SDS011;34770;49.272;11.070;2023-11-22T13:50:31;12.23;;;9.17;;
16029;SDS011;34770;49.272;11.070;2023-11-22T13:52:57;11.57;;;8.80;;
16029;SDS011;34770;49.272;11.070;2023-11-22T13:55:24;13.60;;;9.43;;
16029;SDS011;34770;49.272;11.070;2023-11-22T14:00:16;8.80;;;7.90;;
16029;SDS011;34770;49.272;11.070;2023-11-22T14:02:48;10.00;;;7.10;;
16029;SDS011;34770;49.272;11.070;2023-11-22T14:05:17;10.30;;;7.90;;
16029;SDS011;34770;49.272;11.070;2023-11-22T14:07:43;13.73;;;9.13;;
16029;SDS011;34770;49.272;11.070;2023-11-22T14:10:09;11.23;;;8.97;;
16029;SDS011;34770;49.272;11.070;2023-11-22T14:12:36;12.00;;;8.40;;
16029;SDS011;34770;49.272;11.070;2023-11-22T14:15:02;10.20;;;7.43;;
16029;SDS011;34770;49.272;11.070;2023-11-22T14:17:31;10.10;;;7.63;;
16029;SDS011;34770;49.272;11.070;2023-11-22T14:19:57;9.37;;;7.43;;
16029;SDS011;34770;49.272;11.070;2023-11-22T14:22:23;9.50;;;7.50;;
16029;SDS011;34770;49.272;11.070;2023-11-22T14:24:49;11.30;;;8.50;;
16029;SDS011;34770;49.272;11.070;2023-11-22T14:27:16;11.43;;;8.73;;
16029;SDS011;34770;49.272;11.070;2023-11-22T14:29:42;9.33;;;8.07;;
16029;SDS011;34770;49.272;11.070;2023-11-22T14:32:08;8.80;;;7.77;;